sensor_id;sensor_type;location;lat;lon;timestamp;P1;durP1;ratioP1;P2;durP2;ratioP2
13566;SDS011;6855;48.112;11.298;2023-12-14T00:02:02;1.23;;;0.70;;
13566;SDS011;6855;48.112;11.298;2023-12-14T00:04:29;0.80;;;0.80;;
13566;SDS011;6855;48.112;11.298;2023-12-14T00:06:56;0.70;;;0.70;;
13566;SDS011;6855;48.112;11.298;2023-12-14T00:09:23;1.60;;;0.73;;
13566;SDS011;6855;48.112;11.298;2023-12-14T00:11:51;1.93;;;0.77;;
13566;SDS011;6855;48.112;11.298;2023-12-14T00:14:18;1.30;;;0.70;;
13566;SDS011;6855;48.112;11.298;2023-12-14T00:16:45;0.93;;;0.80;;
13566;SDS011;6855;48.112;11.298;2023-12-14T00:19:13;1.60;;;0.90;;
13566;SDS011;6855;48.112;11.298;2023-12-14T00:21:41;1.83;;;1.10;;
13566;SDS011;6855;48.112;11.298;2023-12-14T00:24:08;2.53;;;1.00;;
13566;SDS011;6855;48.112;11.298;2023-12-14T00:26:35;1.10;;;0.90;;
13566;SDS011;6855;48.112;11.298;2023-12-14T00:29:02;1.10;;;0.90;;
13566;SDS011;6855;48.112;11.298;2023-12-14T00:31:29;1.00;;;0.87;;
13566;SDS011;6855;48.112;11.298;2023-12-14T00:33:56;1.50;;;0.90;;
13566;SDS011;6855;48.112;11.298;2023-12-14T00:36:25;1.53;;;0.70;;
13566;SDS011;6855;48.112;11.298;2023-12-14T00:38:52;1.43;;;0.90;;
13566;SDS011;6855;48.112;11.298;2023-12-14T00:41:20;1.43;;;0.90;;
13566;SDS011;6855;48.112;11.298;2023-12-14T00:43:47;1.60;;;0.73;;
13566;SDS011;6855;48.112;11.298;2023-12-14T00:46:15;1.20;;;0.80;;
13566;SDS011;6855;48.112;11.298;2023-12-14T00:48:42;0.90;;;0.87;;
13566;SDS011;6855;48.112;11.298;2023-12-14T00:51:09;0.97;;;0.77;;
13566;SDS011;6855;48.112;11.298;2023-12-14T00:53:37;1.03;;;0.80;;
13566;SDS011;6855;48.112;11.298;2023-12-14T00:56:07;1.77;;;1.00;;
13566;SDS011;6855;48.112;11.298;2023-12-14T00:58:34;1.73;;;0.90;;
13566;SDS011;6855;48.112;11.298;2023-12-14T01:01:01;1.40;;;0.67;;
13566;SDS011;6855;48.112;11.298;2023-12-14T01:03:28;0.80;;;0.80;;
13566;SDS011;6855;48.112;11.298;2023-12-14T01:05:55;0.83;;;0.77;;
13566;SDS011;6855;48.112;11.298;2023-12-14T01:08:23;0.80;;;0.80;;
13566;SDS011;6855;48.112;11.298;2023-12-14T01:10:51;1.87;;;1.00;;
13566;SDS011;6855;48.112;11.298;2023-12-14T01:13:18;2.40;;;0.77;;
13566;SDS011;6855;48.112;11.298;2023-12-14T01:15:46;1.10;;;0.70;;
13566;SDS011;6855;48.112;11.298;2023-12-14T01:18:13;1.00;;;0.90;;
13566;SDS011;6855;48.112;11.298;2023-12-14T01:20:40;1.07;;;0.90;;
13566;SDS011;6855;48.112;11.298;2023-12-14T01:23:08;0.80;;;0.80;;
13566;SDS011;6855;48.112;11.298;2023-12-14T01:25:35;1.00;;;0.83;;
13566;SDS011;6855;48.112;11.298;2023-12-14T01:28:04;1.70;;;0.93;;
13566;SDS011;6855;48.112;11.298;2023-12-14T01:30:31;1.20;;;0.83;;
13566;SDS011;6855;48.112;11.298;2023-12-14T01:32:58;1.07;;;0.80;;
13566;SDS011;6855;48.112;11.298;2023-12-14T01:35:25;1.20;;;1.10;;
13566;SDS011;6855;48.112;11.298;2023-12-14T01:37:54;0.80;;;0.80;;
13566;SDS011;6855;48.112;11.298;2023-12-14T01:40:22;1.97;;;1.00;;
13566;SDS011;6855;48.112;11.298;2023-12-14T01:42:49;1.10;;;1.00;;
13566;SDS011;6855;48.112;11.298;2023-12-14T01:45:17;1.20;;;1.10;;
13566;SDS011;6855;48.112;11.298;2023-12-14T01:47:45;1.27;;;1.17;;
13566;SDS011;6855;48.112;11.298;2023-12-14T01:50:12;0.80;;;0.80;;
13566;SDS011;6855;48.112;11.298;2023-12-14T01:52:39;1.20;;;1.07;;
13566;SDS011;6855;48.112;11.298;2023-12-14T01:55:06;2.10;;;0.90;;
13566;SDS011;6855;48.112;11.298;2023-12-14T01:57:34;1.00;;;0.80;;
13566;SDS011;6855;48.112;11.298;2023-12-14T02:00:01;1.20;;;1.00;;
13566;SDS011;6855;48.112;11.298;2023-12-14T02:02:29;0.70;;;0.70;;
13566;SDS011;6855;48.112;11.298;2023-12-14T02:04:56;0.93;;;0.80;;
13566;SDS011;6855;48.112;11.298;2023-12-14T02:07:24;0.50;;;0.50;;
13566;SDS011;6855;48.112;11.298;2023-12-14T02:09:51;2.17;;;0.80;;
13566;SDS011;6855;48.112;11.298;2023-12-14T02:12:18;2.20;;;0.87;;
13566;SDS011;6855;48.112;11.298;2023-12-14T02:14:45;4.10;;;0.87;;
13566;SDS011;6855;48.112;11.298;2023-12-14T02:17:12;0.80;;;0.63;;
13566;SDS011;6855;48.112;11.298;2023-12-14T02:19:41;1.00;;;0.80;;
13566;SDS011;6855;48.112;11.298;2023-12-14T02:22:08;0.93;;;0.67;;
13566;SDS011;6855;48.112;11.298;2023-12-14T02:24:37;1.83;;;0.90;;
13566;SDS011;6855;48.112;11.298;2023-12-14T02:27:04;2.20;;;0.90;;
13566;SDS011;6855;48.112;11.298;2023-12-14T02:29:31;0.67;;;0.67;;
13566;SDS011;6855;48.112;11.298;2023-12-14T02:31:58;0.90;;;0.80;;
13566;SDS011;6855;48.112;11.298;2023-12-14T02:34:25;1.00;;;0.80;;
13566;SDS011;6855;48.112;11.298;2023-12-14T02:36:53;1.20;;;0.80;;
13566;SDS011;6855;48.112;11.298;2023-12-14T02:39:20;0.70;;;0.67;;
13566;SDS011;6855;48.112;11.298;2023-12-14T02:41:48;0.93;;;0.83;;
13566;SDS011;6855;48.112;11.298;2023-12-14T02:44:15;0.80;;;0.67;;
13566;SDS011;6855;48.112;11.298;2023-12-14T02:46:43;0.87;;;0.87;;
13566;SDS011;6855;48.112;11.298;2023-12-14T02:49:10;0.90;;;0.83;;
13566;SDS011;6855;48.112;11.298;2023-12-14T02:51:37;1.37;;;1.10;;
13566;SDS011;6855;48.112;11.298;2023-12-14T02:54:04;0.97;;;0.87;;
13566;SDS011;6855;48.112;11.298;2023-12-14T02:56:31;1.37;;;1.10;;
13566;SDS011;6855;48.112;11.298;2023-12-14T02:59:00;0.93;;;0.80;;
13566;SDS011;6855;48.112;11.298;2023-12-14T03:01:27;1.37;;;1.00;;
13566;SDS011;6855;48.112;11.298;2023-12-14T03:03:54;1.10;;;0.80;;
13566;SDS011;6855;48.112;11.298;2023-12-14T03:06:21;1.00;;;0.90;;
13566;SDS011;6855;48.112;11.298;2023-12-14T03:08:48;0.90;;;0.90;;
13566;SDS011;6855;48.112;11.298;2023-12-14T03:11:22;1.90;;;0.70;;
13566;SDS011;6855;48.112;11.298;2023-12-14T03:13:49;1.13;;;0.70;;
13566;SDS011;6855;48.112;11.298;2023-12-14T03:16:18;0.60;;;0.50;;
13566;SDS011;6855;48.112;11.298;2023-12-14T03:18:45;1.00;;;0.80;;
13566;SDS011;6855;48.112;11.298;2023-12-14T03:21:14;0.93;;;0.83;;
13566;SDS011;6855;48.112;11.298;2023-12-14T03:23:41;0.90;;;0.90;;
13566;SDS011;6855;48.112;11.298;2023-12-14T03:26:08;0.80;;;0.70;;
13566;SDS011;6855;48.112;11.298;2023-12-14T03:28:36;0.80;;;0.80;;
13566;SDS011;6855;48.112;11.298;2023-12-14T03:31:03;0.80;;;0.80;;
13566;SDS011;6855;48.112;11.298;2023-12-14T03:33:31;1.10;;;1.00;;
13566;SDS011;6855;48.112;11.298;2023-12-14T03:35:59;0.73;;;0.63;;
13566;SDS011;6855;48.112;11.298;2023-12-14T03:38:27;1.03;;;0.93;;
13566;SDS011;6855;48.112;11.298;2023-12-14T03:40:54;1.10;;;0.73;;
13566;SDS011;6855;48.112;11.298;2023-12-14T03:43:21;0.70;;;0.70;;
13566;SDS011;6855;48.112;11.298;2023-12-14T03:45:48;0.80;;;0.80;;
13566;SDS011;6855;48.112;11.298;2023-12-14T03:48:16;1.30;;;0.90;;
13566;SDS011;6855;48.112;11.298;2023-12-14T03:50:44;0.83;;;0.83;;
13566;SDS011;6855;48.112;11.298;2023-12-14T03:53:11;1.17;;;0.80;;
13566;SDS011;6855;48.112;11.298;2023-12-14T03:55:38;0.90;;;0.83;;
13566;SDS011;6855;48.112;11.298;2023-12-14T03:58:06;0.60;;;0.60;;
13566;SDS011;6855;48.112;11.298;2023-12-14T04:00:33;0.70;;;0.70;;
13566;SDS011;6855;48.112;11.298;2023-12-14T04:03:00;0.50;;;0.50;;
13566;SDS011;6855;48.112;11.298;2023-12-14T04:05:27;0.93;;;0.60;;
13566;SDS011;6855;48.112;11.298;2023-12-14T04:07:56;0.57;;;0.57;;
13566;SDS011;6855;48.112;11.298;2023-12-14T04:10:23;0.87;;;0.67;;
13566;SDS011;6855;48.112;11.298;2023-12-14T04:12:50;0.60;;;0.60;;
13566;SDS011;6855;48.112;11.298;2023-12-14T04:15:17;1.07;;;0.60;;
13566;SDS011;6855;48.112;11.298;2023-12-14T04:17:44;0.50;;;0.50;;
13566;SDS011;6855;48.112;11.298;2023-12-14T04:20:12;3.33;;;0.50;;
13566;SDS011;6855;48.112;11.298;2023-12-14T04:22:40;0.60;;;0.50;;
13566;SDS011;6855;48.112;11.298;2023-12-14T04:25:09;0.80;;;0.50;;
13566;SDS011;6855;48.112;11.298;2023-12-14T04:27:36;1.27;;;0.60;;
13566;SDS011;6855;48.112;11.298;2023-12-14T04:30:04;0.50;;;0.40;;
13566;SDS011;6855;48.112;11.298;2023-12-14T04:32:35;0.93;;;0.67;;
13566;SDS011;6855;48.112;11.298;2023-12-14T04:37:38;0.70;;;0.50;;
13566;SDS011;6855;48.112;11.298;2023-12-14T04:40:06;0.70;;;0.60;;
13566;SDS011;6855;48.112;11.298;2023-12-14T04:42:36;0.70;;;0.60;;
13566;SDS011;6855;48.112;11.298;2023-12-14T04:45:03;0.73;;;0.60;;
13566;SDS011;6855;48.112;11.298;2023-12-14T04:47:31;2.33;;;0.80;;
13566;SDS011;6855;48.112;11.298;2023-12-14T04:49:58;0.80;;;0.80;;
13566;SDS011;6855;48.112;11.298;2023-12-14T04:52:26;1.67;;;0.70;;
13566;SDS011;6855;48.112;11.298;2023-12-14T04:54:53;0.63;;;0.63;;
13566;SDS011;6855;48.112;11.298;2023-12-14T04:57:20;0.97;;;0.87;;
13566;SDS011;6855;48.112;11.298;2023-12-14T04:59:48;0.80;;;0.80;;
13566;SDS011;6855;48.112;11.298;2023-12-14T05:02:16;0.97;;;0.90;;
13566;SDS011;6855;48.112;11.298;2023-12-14T05:04:43;1.17;;;0.70;;
13566;SDS011;6855;48.112;11.298;2023-12-14T05:07:10;1.10;;;1.00;;
13566;SDS011;6855;48.112;11.298;2023-12-14T05:09:37;1.30;;;1.20;;
13566;SDS011;6855;48.112;11.298;2023-12-14T05:12:05;1.23;;;1.13;;
13566;SDS011;6855;48.112;11.298;2023-12-14T05:14:32;1.90;;;1.30;;
13566;SDS011;6855;48.112;11.298;2023-12-14T05:17:00;1.73;;;1.53;;
13566;SDS011;6855;48.112;11.298;2023-12-14T05:19:28;2.80;;;1.57;;
13566;SDS011;6855;48.112;11.298;2023-12-14T05:21:55;1.73;;;1.43;;
13566;SDS011;6855;48.112;11.298;2023-12-14T05:24:22;4.53;;;2.00;;
13566;SDS011;6855;48.112;11.298;2023-12-14T05:26:49;5.17;;;1.90;;
13566;SDS011;6855;48.112;11.298;2023-12-14T05:29:17;7.90;;;2.07;;
13566;SDS011;6855;48.112;11.298;2023-12-14T05:31:46;1.63;;;1.47;;
13566;SDS011;6855;48.112;11.298;2023-12-14T05:34:15;2.97;;;1.40;;
13566;SDS011;6855;48.112;11.298;2023-12-14T05:36:42;2.23;;;1.23;;
13566;SDS011;6855;48.112;11.298;2023-12-14T05:39:09;1.77;;;1.40;;
13566;SDS011;6855;48.112;11.298;2023-12-14T05:41:39;3.23;;;1.50;;
13566;SDS011;6855;48.112;11.298;2023-12-14T05:44:06;1.63;;;1.00;;
13566;SDS011;6855;48.112;11.298;2023-12-14T05:46:34;1.30;;;1.20;;
13566;SDS011;6855;48.112;11.298;2023-12-14T05:49:02;2.17;;;1.40;;
13566;SDS011;6855;48.112;11.298;2023-12-14T05:51:30;2.10;;;1.57;;
13566;SDS011;6855;48.112;11.298;2023-12-14T05:53:58;2.97;;;1.70;;
13566;SDS011;6855;48.112;11.298;2023-12-14T05:56:25;2.80;;;1.50;;
13566;SDS011;6855;48.112;11.298;2023-12-14T05:58:53;1.83;;;1.63;;
13566;SDS011;6855;48.112;11.298;2023-12-14T06:01:20;3.00;;;1.70;;
13566;SDS011;6855;48.112;11.298;2023-12-14T06:03:47;2.17;;;1.70;;
13566;SDS011;6855;48.112;11.298;2023-12-14T06:06:14;1.60;;;1.40;;
13566;SDS011;6855;48.112;11.298;2023-12-14T06:08:43;2.67;;;1.20;;
13566;SDS011;6855;48.112;11.298;2023-12-14T06:11:10;1.63;;;1.40;;
13566;SDS011;6855;48.112;11.298;2023-12-14T06:13:37;2.67;;;1.80;;
13566;SDS011;6855;48.112;11.298;2023-12-14T06:16:05;4.37;;;1.67;;
13566;SDS011;6855;48.112;11.298;2023-12-14T06:18:37;3.47;;;2.00;;
13566;SDS011;6855;48.112;11.298;2023-12-14T06:21:06;2.03;;;1.80;;
13566;SDS011;6855;48.112;11.298;2023-12-14T06:23:33;4.17;;;2.20;;
13566;SDS011;6855;48.112;11.298;2023-12-14T06:26:03;2.80;;;2.17;;
13566;SDS011;6855;48.112;11.298;2023-12-14T06:28:30;2.83;;;2.10;;
13566;SDS011;6855;48.112;11.298;2023-12-14T06:30:57;2.90;;;2.50;;
13566;SDS011;6855;48.112;11.298;2023-12-14T06:33:26;5.37;;;1.97;;
13566;SDS011;6855;48.112;11.298;2023-12-14T06:35:53;4.33;;;2.77;;
13566;SDS011;6855;48.112;11.298;2023-12-14T06:38:20;3.80;;;2.80;;
13566;SDS011;6855;48.112;11.298;2023-12-14T06:40:47;2.90;;;2.40;;
13566;SDS011;6855;48.112;11.298;2023-12-14T06:43:16;4.17;;;2.77;;
13566;SDS011;6855;48.112;11.298;2023-12-14T06:45:43;3.33;;;2.47;;
13566;SDS011;6855;48.112;11.298;2023-12-14T06:48:10;3.97;;;2.83;;
13566;SDS011;6855;48.112;11.298;2023-12-14T06:50:37;4.57;;;3.00;;
13566;SDS011;6855;48.112;11.298;2023-12-14T06:53:05;4.03;;;3.00;;
13566;SDS011;6855;48.112;11.298;2023-12-14T06:55:32;5.67;;;3.10;;
13566;SDS011;6855;48.112;11.298;2023-12-14T06:57:59;5.87;;;3.47;;
13566;SDS011;6855;48.112;11.298;2023-12-14T07:00:27;5.90;;;2.83;;
13566;SDS011;6855;48.112;11.298;2023-12-14T07:02:55;5.20;;;3.93;;
13566;SDS011;6855;48.112;11.298;2023-12-14T07:05:22;4.30;;;3.40;;
13566;SDS011;6855;48.112;11.298;2023-12-14T07:07:49;7.33;;;3.87;;
13566;SDS011;6855;48.112;11.298;2023-12-14T07:10:16;5.40;;;4.33;;
13566;SDS011;6855;48.112;11.298;2023-12-14T07:12:44;4.87;;;3.47;;
13566;SDS011;6855;48.112;11.298;2023-12-14T07:15:11;5.13;;;3.47;;
13566;SDS011;6855;48.112;11.298;2023-12-14T07:17:40;6.57;;;3.47;;
13566;SDS011;6855;48.112;11.298;2023-12-14T07:20:07;7.10;;;4.10;;
13566;SDS011;6855;48.112;11.298;2023-12-14T07:22:35;6.53;;;3.97;;
13566;SDS011;6855;48.112;11.298;2023-12-14T07:25:02;6.23;;;3.60;;
13566;SDS011;6855;48.112;11.298;2023-12-14T07:27:29;6.10;;;3.67;;
13566;SDS011;6855;48.112;11.298;2023-12-14T07:29:56;8.43;;;3.93;;
13566;SDS011;6855;48.112;11.298;2023-12-14T07:32:23;5.17;;;3.60;;
13566;SDS011;6855;48.112;11.298;2023-12-14T07:34:53;5.80;;;4.37;;
13566;SDS011;6855;48.112;11.298;2023-12-14T07:37:20;5.90;;;3.57;;
13566;SDS011;6855;48.112;11.298;2023-12-14T07:39:47;11.60;;;4.77;;
13566;SDS011;6855;48.112;11.298;2023-12-14T07:42:14;6.23;;;4.50;;
13566;SDS011;6855;48.112;11.298;2023-12-14T07:44:44;7.77;;;4.10;;
13566;SDS011;6855;48.112;11.298;2023-12-14T07:47:11;8.30;;;4.00;;
13566;SDS011;6855;48.112;11.298;2023-12-14T07:49:39;8.17;;;5.30;;
13566;SDS011;6855;48.112;11.298;2023-12-14T07:52:07;7.10;;;4.43;;
13566;SDS011;6855;48.112;11.298;2023-12-14T07:54:34;6.60;;;4.30;;
13566;SDS011;6855;48.112;11.298;2023-12-14T07:57:01;6.80;;;4.17;;
13566;SDS011;6855;48.112;11.298;2023-12-14T07:59:29;6.03;;;4.07;;
13566;SDS011;6855;48.112;11.298;2023-12-14T08:01:56;5.30;;;3.70;;
13566;SDS011;6855;48.112;11.298;2023-12-14T08:04:23;5.40;;;4.43;;
13566;SDS011;6855;48.112;11.298;2023-12-14T08:06:51;4.90;;;4.00;;
13566;SDS011;6855;48.112;11.298;2023-12-14T08:09:19;6.60;;;4.47;;
13566;SDS011;6855;48.112;11.298;2023-12-14T08:11:46;6.17;;;4.00;;
13566;SDS011;6855;48.112;11.298;2023-12-14T08:14:15;5.70;;;4.40;;
13566;SDS011;6855;48.112;11.298;2023-12-14T08:16:42;5.63;;;4.40;;
13566;SDS011;6855;48.112;11.298;2023-12-14T08:19:09;8.73;;;4.00;;
13566;SDS011;6855;48.112;11.298;2023-12-14T08:21:36;8.70;;;4.10;;
13566;SDS011;6855;48.112;11.298;2023-12-14T08:24:04;8.30;;;5.07;;
13566;SDS011;6855;48.112;11.298;2023-12-14T08:26:33;7.90;;;5.20;;
13566;SDS011;6855;48.112;11.298;2023-12-14T08:29:00;7.53;;;4.93;;
13566;SDS011;6855;48.112;11.298;2023-12-14T08:31:27;9.63;;;5.30;;
13566;SDS011;6855;48.112;11.298;2023-12-14T08:33:55;8.30;;;4.90;;
13566;SDS011;6855;48.112;11.298;2023-12-14T08:36:22;7.57;;;4.67;;
13566;SDS011;6855;48.112;11.298;2023-12-14T08:38:49;6.73;;;4.80;;
13566;SDS011;6855;48.112;11.298;2023-12-14T08:41:16;8.10;;;3.27;;
13566;SDS011;6855;48.112;11.298;2023-12-14T08:43:45;5.10;;;3.97;;
13566;SDS011;6855;48.112;11.298;2023-12-14T08:46:12;4.50;;;3.63;;
13566;SDS011;6855;48.112;11.298;2023-12-14T08:48:39;4.87;;;3.87;;
13566;SDS011;6855;48.112;11.298;2023-12-14T08:51:06;3.80;;;3.20;;
13566;SDS011;6855;48.112;11.298;2023-12-14T08:53:34;4.23;;;3.50;;
13566;SDS011;6855;48.112;11.298;2023-12-14T08:56:01;5.40;;;3.30;;
13566;SDS011;6855;48.112;11.298;2023-12-14T08:58:28;5.47;;;3.20;;
13566;SDS011;6855;48.112;11.298;2023-12-14T09:00:57;4.77;;;3.63;;
13566;SDS011;6855;48.112;11.298;2023-12-14T09:03:23;5.10;;;3.47;;
13566;SDS011;6855;48.112;11.298;2023-12-14T09:05:51;7.17;;;4.60;;
13566;SDS011;6855;48.112;11.298;2023-12-14T09:08:18;3.10;;;2.70;;
13566;SDS011;6855;48.112;11.298;2023-12-14T09:10:45;3.50;;;3.00;;
13566;SDS011;6855;48.112;11.298;2023-12-14T09:13:13;4.13;;;3.30;;
13566;SDS011;6855;48.112;11.298;2023-12-14T09:15:40;4.57;;;3.50;;
13566;SDS011;6855;48.112;11.298;2023-12-14T09:18:08;3.70;;;2.83;;
13566;SDS011;6855;48.112;11.298;2023-12-14T09:20:35;4.57;;;3.30;;
13566;SDS011;6855;48.112;11.298;2023-12-14T09:23:05;5.20;;;3.53;;
13566;SDS011;6855;48.112;11.298;2023-12-14T09:25:32;4.33;;;2.40;;
13566;SDS011;6855;48.112;11.298;2023-12-14T09:27:59;4.07;;;2.60;;
13566;SDS011;6855;48.112;11.298;2023-12-14T09:30:26;2.40;;;2.17;;
13566;SDS011;6855;48.112;11.298;2023-12-14T09:32:53;3.50;;;2.63;;
13566;SDS011;6855;48.112;11.298;2023-12-14T09:35:22;2.20;;;2.00;;
13566;SDS011;6855;48.112;11.298;2023-12-14T09:37:49;4.73;;;2.40;;
13566;SDS011;6855;48.112;11.298;2023-12-14T09:40:17;4.40;;;2.80;;
13566;SDS011;6855;48.112;11.298;2023-12-14T09:42:44;2.60;;;2.00;;
13566;SDS011;6855;48.112;11.298;2023-12-14T09:45:12;2.67;;;1.83;;
13566;SDS011;6855;48.112;11.298;2023-12-14T09:47:39;2.23;;;2.03;;
13566;SDS011;6855;48.112;11.298;2023-12-14T09:50:07;4.63;;;2.33;;
13566;SDS011;6855;48.112;11.298;2023-12-14T09:52:36;2.67;;;2.30;;
13566;SDS011;6855;48.112;11.298;2023-12-14T09:55:03;3.90;;;2.37;;
13566;SDS011;6855;48.112;11.298;2023-12-14T09:57:30;3.80;;;2.47;;
13566;SDS011;6855;48.112;11.298;2023-12-14T09:59:58;3.63;;;2.30;;
13566;SDS011;6855;48.112;11.298;2023-12-14T10:02:25;3.27;;;2.50;;
13566;SDS011;6855;48.112;11.298;2023-12-14T10:04:52;2.57;;;2.37;;
13566;SDS011;6855;48.112;11.298;2023-12-14T10:07:20;4.47;;;1.90;;
13566;SDS011;6855;48.112;11.298;2023-12-14T10:09:49;3.10;;;2.30;;
13566;SDS011;6855;48.112;11.298;2023-12-14T10:12:20;3.80;;;2.20;;
13566;SDS011;6855;48.112;11.298;2023-12-14T10:14:49;2.37;;;2.00;;
13566;SDS011;6855;48.112;11.298;2023-12-14T10:17:26;2.40;;;2.00;;
13566;SDS011;6855;48.112;11.298;2023-12-14T10:19:57;2.37;;;1.70;;
13566;SDS011;6855;48.112;11.298;2023-12-14T10:22:28;2.47;;;1.63;;
13566;SDS011;6855;48.112;11.298;2023-12-14T10:24:59;2.60;;;1.70;;
13566;SDS011;6855;48.112;11.298;2023-12-14T10:27:26;2.30;;;2.10;;
13566;SDS011;6855;48.112;11.298;2023-12-14T10:29:55;3.10;;;2.17;;
13566;SDS011;6855;48.112;11.298;2023-12-14T10:32:23;2.53;;;1.90;;
13566;SDS011;6855;48.112;11.298;2023-12-14T10:34:51;2.30;;;1.80;;
13566;SDS011;6855;48.112;11.298;2023-12-14T10:37:18;2.93;;;1.83;;
13566;SDS011;6855;48.112;11.298;2023-12-14T10:39:46;3.67;;;2.23;;
13566;SDS011;6855;48.112;11.298;2023-12-14T10:42:15;1.57;;;1.37;;
13566;SDS011;6855;48.112;11.298;2023-12-14T10:44:44;2.23;;;2.03;;
13566;SDS011;6855;48.112;11.298;2023-12-14T10:47:12;2.30;;;1.83;;
13566;SDS011;6855;48.112;11.298;2023-12-14T10:49:40;3.23;;;1.80;;
13566;SDS011;6855;48.112;11.298;2023-12-14T10:52:09;1.87;;;1.50;;
13566;SDS011;6855;48.112;11.298;2023-12-14T10:54:36;1.30;;;1.13;;
13566;SDS011;6855;48.112;11.298;2023-12-14T10:57:04;2.90;;;1.80;;
13566;SDS011;6855;48.112;11.298;2023-12-14T10:59:35;1.77;;;1.40;;
13566;SDS011;6855;48.112;11.298;2023-12-14T11:02:06;2.93;;;1.30;;
13566;SDS011;6855;48.112;11.298;2023-12-14T11:04:37;1.97;;;1.20;;
13566;SDS011;6855;48.112;11.298;2023-12-14T11:10:02;2.60;;;1.40;;
13566;SDS011;6855;48.112;11.298;2023-12-14T11:12:30;1.43;;;1.33;;
13566;SDS011;6855;48.112;11.298;2023-12-14T11:14:58;2.17;;;1.43;;
13566;SDS011;6855;48.112;11.298;2023-12-14T11:18:06;1.27;;;1.17;;
13566;SDS011;6855;48.112;11.298;2023-12-14T11:20:28;1.10;;;1.00;;
13566;SDS011;6855;48.112;11.298;2023-12-14T11:28:06;1.00;;;0.80;;
13566;SDS011;6855;48.112;11.298;2023-12-14T11:32:06;1.27;;;1.17;;
13566;SDS011;6855;48.112;11.298;2023-12-14T11:37:49;1.00;;;0.90;;
13566;SDS011;6855;48.112;11.298;2023-12-14T11:44:54;1.57;;;1.17;;
13566;SDS011;6855;48.112;11.298;2023-12-14T11:46:16;1.30;;;1.20;;
13566;SDS011;6855;48.112;11.298;2023-12-14T11:48:45;1.20;;;1.10;;
13566;SDS011;6855;48.112;11.298;2023-12-14T11:51:13;1.03;;;1.00;;
13566;SDS011;6855;48.112;11.298;2023-12-14T11:53:50;4.40;;;0.87;;
13566;SDS011;6855;48.112;11.298;2023-12-14T11:56:30;1.17;;;1.07;;
13566;SDS011;6855;48.112;11.298;2023-12-14T12:11:55;2.87;;;1.43;;
13566;SDS011;6855;48.112;11.298;2023-12-14T12:14:44;1.03;;;0.80;;
13566;SDS011;6855;48.112;11.298;2023-12-14T12:17:37;1.70;;;1.03;;
13566;SDS011;6855;48.112;11.298;2023-12-14T12:20:48;4.50;;;1.67;;
13566;SDS011;6855;48.112;11.298;2023-12-14T12:26:29;1.50;;;0.80;;
13566;SDS011;6855;48.112;11.298;2023-12-14T12:32:03;0.90;;;0.80;;
13566;SDS011;6855;48.112;11.298;2023-12-14T12:34:30;1.17;;;1.00;;
13566;SDS011;6855;48.112;11.298;2023-12-14T12:36:57;1.37;;;0.80;;
13566;SDS011;6855;48.112;11.298;2023-12-14T12:39:24;1.40;;;1.00;;
13566;SDS011;6855;48.112;11.298;2023-12-14T12:41:53;0.93;;;0.70;;
13566;SDS011;6855;48.112;11.298;2023-12-14T12:44:20;1.33;;;0.70;;
13566;SDS011;6855;48.112;11.298;2023-12-14T12:46:47;0.80;;;0.70;;
13566;SDS011;6855;48.112;11.298;2023-12-14T12:49:16;0.70;;;0.70;;
13566;SDS011;6855;48.112;11.298;2023-12-14T12:51:43;0.70;;;0.70;;
13566;SDS011;6855;48.112;11.298;2023-12-14T12:54:11;2.27;;;1.20;;
13566;SDS011;6855;48.112;11.298;2023-12-14T12:56:38;1.97;;;1.20;;
13566;SDS011;6855;48.112;11.298;2023-12-14T12:59:06;2.77;;;1.30;;
13566;SDS011;6855;48.112;11.298;2023-12-14T13:01:34;0.90;;;0.80;;
13566;SDS011;6855;48.112;11.298;2023-12-14T13:04:04;1.97;;;1.13;;
13566;SDS011;6855;48.112;11.298;2023-12-14T13:06:45;1.00;;;0.90;;
13566;SDS011;6855;48.112;11.298;2023-12-14T13:09:13;1.27;;;1.10;;
13566;SDS011;6855;48.112;11.298;2023-12-14T13:11:41;1.33;;;1.10;;
13566;SDS011;6855;48.112;11.298;2023-12-14T13:14:09;2.63;;;1.50;;
13566;SDS011;6855;48.112;11.298;2023-12-14T13:16:36;1.30;;;1.00;;
13566;SDS011;6855;48.112;11.298;2023-12-14T13:19:04;1.77;;;1.13;;
13566;SDS011;6855;48.112;11.298;2023-12-14T13:21:34;2.20;;;1.27;;
13566;SDS011;6855;48.112;11.298;2023-12-14T13:24:03;1.30;;;1.20;;
13566;SDS011;6855;48.112;11.298;2023-12-14T13:26:30;6.70;;;1.47;;
13566;SDS011;6855;48.112;11.298;2023-12-14T13:28:58;2.77;;;1.80;;
13566;SDS011;6855;48.112;11.298;2023-12-14T13:31:25;2.70;;;1.50;;
13566;SDS011;6855;48.112;11.298;2023-12-14T13:33:56;2.97;;;1.80;;
13566;SDS011;6855;48.112;11.298;2023-12-14T13:36:24;2.67;;;1.80;;
13566;SDS011;6855;48.112;11.298;2023-12-14T13:38:51;1.30;;;1.20;;
13566;SDS011;6855;48.112;11.298;2023-12-14T13:41:20;3.93;;;2.03;;
13566;SDS011;6855;48.112;11.298;2023-12-14T13:43:50;1.63;;;1.53;;
13566;SDS011;6855;48.112;11.298;2023-12-14T13:46:17;3.53;;;1.97;;
13566;SDS011;6855;48.112;11.298;2023-12-14T13:48:46;7.53;;;2.20;;
13566;SDS011;6855;48.112;11.298;2023-12-14T13:51:15;1.40;;;1.30;;
13566;SDS011;6855;48.112;11.298;2023-12-14T13:53:44;1.60;;;1.50;;
13566;SDS011;6855;48.112;11.298;2023-12-14T13:56:11;1.93;;;1.40;;
13566;SDS011;6855;48.112;11.298;2023-12-14T13:58:43;3.00;;;1.20;;
13566;SDS011;6855;48.112;11.298;2023-12-14T14:01:13;1.87;;;1.67;;
13566;SDS011;6855;48.112;11.298;2023-12-14T14:03:41;3.30;;;1.93;;
13566;SDS011;6855;48.112;11.298;2023-12-14T14:06:10;2.47;;;1.57;;
13566;SDS011;6855;48.112;11.298;2023-12-14T14:08:39;2.33;;;1.63;;
13566;SDS011;6855;48.112;11.298;2023-12-14T14:11:09;2.00;;;1.70;;
13566;SDS011;6855;48.112;11.298;2023-12-14T14:13:37;3.43;;;1.60;;
13566;SDS011;6855;48.112;11.298;2023-12-14T14:16:07;1.63;;;1.53;;
13566;SDS011;6855;48.112;11.298;2023-12-14T14:18:35;1.80;;;1.53;;
13566;SDS011;6855;48.112;11.298;2023-12-14T14:21:06;2.50;;;1.83;;
13566;SDS011;6855;48.112;11.298;2023-12-14T14:23:34;3.07;;;1.27;;
13566;SDS011;6855;48.112;11.298;2023-12-14T14:26:01;2.50;;;1.50;;
13566;SDS011;6855;48.112;11.298;2023-12-14T14:28:28;2.03;;;1.70;;
13566;SDS011;6855;48.112;11.298;2023-12-14T14:30:57;2.23;;;1.30;;
13566;SDS011;6855;48.112;11.298;2023-12-14T14:33:28;2.60;;;1.67;;
13566;SDS011;6855;48.112;11.298;2023-12-14T14:35:55;2.50;;;1.97;;
13566;SDS011;6855;48.112;11.298;2023-12-14T14:38:22;1.70;;;1.60;;
13566;SDS011;6855;48.112;11.298;2023-12-14T14:40:49;1.70;;;1.60;;
13566;SDS011;6855;48.112;11.298;2023-12-14T14:43:17;2.23;;;1.73;;
13566;SDS011;6855;48.112;11.298;2023-12-14T14:45:52;7.10;;;2.00;;
13566;SDS011;6855;48.112;11.298;2023-12-14T14:48:19;4.10;;;1.93;;
13566;SDS011;6855;48.112;11.298;2023-12-14T14:50:48;2.17;;;1.93;;
13566;SDS011;6855;48.112;11.298;2023-12-14T14:53:18;2.70;;;2.13;;
13566;SDS011;6855;48.112;11.298;2023-12-14T14:55:46;2.53;;;2.00;;
13566;SDS011;6855;48.112;11.298;2023-12-14T14:58:18;3.83;;;2.43;;
13566;SDS011;6855;48.112;11.298;2023-12-14T15:00:45;3.70;;;2.17;;
13566;SDS011;6855;48.112;11.298;2023-12-14T15:03:12;3.60;;;2.10;;
13566;SDS011;6855;48.112;11.298;2023-12-14T15:05:40;3.80;;;2.03;;
13566;SDS011;6855;48.112;11.298;2023-12-14T15:08:13;3.00;;;2.57;;
13566;SDS011;6855;48.112;11.298;2023-12-14T15:10:42;2.93;;;1.60;;
13566;SDS011;6855;48.112;11.298;2023-12-14T15:13:13;2.97;;;2.00;;
13566;SDS011;6855;48.112;11.298;2023-12-14T15:15:40;4.20;;;2.10;;
13566;SDS011;6855;48.112;11.298;2023-12-14T15:18:09;3.70;;;1.90;;
13566;SDS011;6855;48.112;11.298;2023-12-14T15:20:37;3.57;;;2.07;;
13566;SDS011;6855;48.112;11.298;2023-12-14T15:23:05;3.73;;;2.23;;
13566;SDS011;6855;48.112;11.298;2023-12-14T15:25:37;3.23;;;2.20;;
13566;SDS011;6855;48.112;11.298;2023-12-14T15:28:06;5.83;;;2.43;;
13566;SDS011;6855;48.112;11.298;2023-12-14T15:30:33;2.30;;;2.10;;
13566;SDS011;6855;48.112;11.298;2023-12-14T15:33:01;5.67;;;2.93;;